sensor_id;sensor_type;location;lat;lon;timestamp;temperature;humidity
41060;DHT22;26811;53.160;8.202;2023-08-30T00:00:02;15.30;99.90
41060;DHT22;26811;53.160;8.202;2023-08-30T00:05:03;15.30;99.90
41060;DHT22;26811;53.160;8.202;2023-08-30T00:10:04;15.30;99.90
41060;DHT22;26811;53.160;8.202;2023-08-30T00:15:06;15.30;99.90
41060;DHT22;26811;53.160;8.202;2023-08-30T00:20:07;15.30;99.90
41060;DHT22;26811;53.160;8.202;2023-08-30T00:25:09;15.30;99.90
41060;DHT22;26811;53.160;8.202;2023-08-30T00:30:10;15.30;99.90
41060;DHT22;26811;53.160;8.202;2023-08-30T00:35:11;15.30;99.90
41060;DHT22;26811;53.160;8.202;2023-08-30T00:40:11;15.30;99.90
41060;DHT22;26811;53.160;8.202;2023-08-30T00:45:12;15.40;99.90
41060;DHT22;26811;53.160;8.202;2023-08-30T00:50:13;15.40;99.90
41060;DHT22;26811;53.160;8.202;2023-08-30T00:55:14;15.40;99.90
41060;DHT22;26811;53.160;8.202;2023-08-30T01:00:15;15.40;99.90
41060;DHT22;26811;53.160;8.202;2023-08-30T01:05:16;15.40;99.90
41060;DHT22;26811;53.160;8.202;2023-08-30T01:10:21;15.40;99.90
41060;DHT22;26811;53.160;8.202;2023-08-30T01:15:23;15.40;99.90
41060;DHT22;26811;53.160;8.202;2023-08-30T01:20:26;15.30;99.90
41060;DHT22;26811;53.160;8.202;2023-08-30T01:30:41;15.40;99.90
41060;DHT22;26811;53.160;8.202;2023-08-30T01:35:42;15.30;99.90
41060;DHT22;26811;53.160;8.202;2023-08-30T01:40:44;15.30;99.90
41060;DHT22;26811;53.160;8.202;2023-08-30T01:45:45;15.20;99.90
41060;DHT22;26811;53.160;8.202;2023-08-30T01:50:46;15.20;99.90
41060;DHT22;26811;53.160;8.202;2023-08-30T01:55:47;15.10;99.90
41060;DHT22;26811;53.160;8.202;2023-08-30T02:00:47;15.10;99.90
41060;DHT22;26811;53.160;8.202;2023-08-30T02:06:11;15.00;99.90
41060;DHT22;26811;53.160;8.202;2023-08-30T02:11:16;15.00;99.90
41060;DHT22;26811;53.160;8.202;2023-08-30T02:16:18;14.90;99.90
41060;DHT22;26811;53.160;8.202;2023-08-30T02:21:19;14.80;99.90
41060;DHT22;26811;53.160;8.202;2023-08-30T02:26:20;14.80;99.90
41060;DHT22;26811;53.160;8.202;2023-08-30T02:31:21;14.70;99.90
41060;DHT22;26811;53.160;8.202;2023-08-30T02:36:21;14.60;99.90
41060;DHT22;26811;53.160;8.202;2023-08-30T02:41:22;14.60;99.90
41060;DHT22;26811;53.160;8.202;2023-08-30T02:46:22;14.50;99.90
41060;DHT22;26811;53.160;8.202;2023-08-30T02:51:23;14.50;99.90
41060;DHT22;26811;53.160;8.202;2023-08-30T02:56:23;14.40;99.90
41060;DHT22;26811;53.160;8.202;2023-08-30T03:01:25;14.40;99.90
41060;DHT22;26811;53.160;8.202;2023-08-30T03:06:26;14.30;99.90
41060;DHT22;26811;53.160;8.202;2023-08-30T03:11:26;14.30;99.90
41060;DHT22;26811;53.160;8.202;2023-08-30T03:16:27;14.30;99.90
41060;DHT22;26811;53.160;8.202;2023-08-30T03:21:29;14.20;99.90
41060;DHT22;26811;53.160;8.202;2023-08-30T03:26:29;14.20;99.90
41060;DHT22;26811;53.160;8.202;2023-08-30T03:31:30;14.20;99.90
41060;DHT22;26811;53.160;8.202;2023-08-30T03:36:30;14.20;99.90
41060;DHT22;26811;53.160;8.202;2023-08-30T03:41:31;14.10;99.90
41060;DHT22;26811;53.160;8.202;2023-08-30T03:46:31;14.10;99.90
41060;DHT22;26811;53.160;8.202;2023-08-30T03:51:32;14.10;99.90
41060;DHT22;26811;53.160;8.202;2023-08-30T03:56:33;14.00;99.90
41060;DHT22;26811;53.160;8.202;2023-08-30T04:01:33;13.90;99.90
41060;DHT22;26811;53.160;8.202;2023-08-30T04:06:34;13.90;99.90
41060;DHT22;26811;53.160;8.202;2023-08-30T04:11:34;13.80;99.90
41060;DHT22;26811;53.160;8.202;2023-08-30T04:16:36;13.70;99.90
41060;DHT22;26811;53.160;8.202;2023-08-30T04:21:36;13.80;99.90
41060;DHT22;26811;53.160;8.202;2023-08-30T04:26:37;13.80;99.90
41060;DHT22;26811;53.160;8.202;2023-08-30T04:31:38;13.80;99.90
41060;DHT22;26811;53.160;8.202;2023-08-30T04:36:38;13.70;99.90
41060;DHT22;26811;53.160;8.202;2023-08-30T04:41:39;13.70;99.90
41060;DHT22;26811;53.160;8.202;2023-08-30T04:46:39;13.70;99.90
41060;DHT22;26811;53.160;8.202;2023-08-30T04:51:40;13.70;99.90
41060;DHT22;26811;53.160;8.202;2023-08-30T04:56:40;13.70;99.90
41060;DHT22;26811;53.160;8.202;2023-08-30T05:01:41;13.70;99.90
41060;DHT22;26811;53.160;8.202;2023-08-30T05:06:47;13.60;99.90
41060;DHT22;26811;53.160;8.202;2023-08-30T05:11:54;13.70;99.90
41060;DHT22;26811;53.160;8.202;2023-08-30T05:16:54;13.70;99.90
41060;DHT22;26811;53.160;8.202;2023-08-30T05:21:58;13.70;99.90
41060;DHT22;26811;53.160;8.202;2023-08-30T05:27:27;13.70;99.90
41060;DHT22;26811;53.160;8.202;2023-08-30T05:38:39;13.80;99.90
41060;DHT22;26811;53.160;8.202;2023-08-30T05:49:32;13.80;99.90
41060;DHT22;26811;53.160;8.202;2023-08-30T05:54:32;13.80;99.90
41060;DHT22;26811;53.160;8.202;2023-08-30T05:59:34;13.80;99.90
41060;DHT22;26811;53.160;8.202;2023-08-30T06:04:35;13.80;99.90
41060;DHT22;26811;53.160;8.202;2023-08-30T06:09:36;13.80;99.90
41060;DHT22;26811;53.160;8.202;2023-08-30T06:14:36;14.00;99.90
41060;DHT22;26811;53.160;8.202;2023-08-30T06:19:37;14.00;99.90
41060;DHT22;26811;53.160;8.202;2023-08-30T06:24:37;14.00;99.90
41060;DHT22;26811;53.160;8.202;2023-08-30T06:29:38;14.10;99.90
41060;DHT22;26811;53.160;8.202;2023-08-30T06:34:38;14.20;99.90
41060;DHT22;26811;53.160;8.202;2023-08-30T06:39:39;14.30;99.90
41060;DHT22;26811;53.160;8.202;2023-08-30T06:44:39;14.30;99.90
41060;DHT22;26811;53.160;8.202;2023-08-30T06:49:40;14.40;99.90
41060;DHT22;26811;53.160;8.202;2023-08-30T06:54:41;14.50;99.90
41060;DHT22;26811;53.160;8.202;2023-08-30T06:59:41;14.60;99.90
41060;DHT22;26811;53.160;8.202;2023-08-30T07:04:42;14.80;99.90
41060;DHT22;26811;53.160;8.202;2023-08-30T07:09:43;15.00;99.90
41060;DHT22;26811;53.160;8.202;2023-08-30T07:14:44;15.10;99.90
41060;DHT22;26811;53.160;8.202;2023-08-30T07:19:44;15.30;99.90
41060;DHT22;26811;53.160;8.202;2023-08-30T07:24:45;15.60;99.90
41060;DHT22;26811;53.160;8.202;2023-08-30T07:29:45;15.90;99.90
41060;DHT22;26811;53.160;8.202;2023-08-30T07:34:46;16.20;99.90
41060;DHT22;26811;53.160;8.202;2023-08-30T07:39:47;16.50;99.90
41060;DHT22;26811;53.160;8.202;2023-08-30T07:44:47;16.80;99.90
41060;DHT22;26811;53.160;8.202;2023-08-30T07:49:48;17.00;99.90
41060;DHT22;26811;53.160;8.202;2023-08-30T07:54:48;17.20;99.90
41060;DHT22;26811;53.160;8.202;2023-08-30T07:59:49;17.40;99.90
41060;DHT22;26811;53.160;8.202;2023-08-30T08:04:49;17.60;99.90
41060;DHT22;26811;53.160;8.202;2023-08-30T08:09:50;17.70;99.90
41060;DHT22;26811;53.160;8.202;2023-08-30T08:14:51;17.90;99.90
41060;DHT22;26811;53.160;8.202;2023-08-30T08:19:51;18.30;99.90
41060;DHT22;26811;53.160;8.202;2023-08-30T08:24:53;18.40;99.90
41060;DHT22;26811;53.160;8.202;2023-08-30T08:29:54;18.70;99.90
41060;DHT22;26811;53.160;8.202;2023-08-30T08:34:54;18.80;99.90
41060;DHT22;26811;53.160;8.202;2023-08-30T08:39:55;18.80;99.90
41060;DHT22;26811;53.160;8.202;2023-08-30T08:44:57;18.80;99.90
41060;DHT22;26811;53.160;8.202;2023-08-30T08:49:59;18.90;99.90
41060;DHT22;26811;53.160;8.202;2023-08-30T08:55:01;18.90;99.90
41060;DHT22;26811;53.160;8.202;2023-08-30T09:00:01;19.00;99.90
41060;DHT22;26811;53.160;8.202;2023-08-30T09:05:02;19.10;99.90
41060;DHT22;26811;53.160;8.202;2023-08-30T09:10:05;19.30;99.90
41060;DHT22;26811;53.160;8.202;2023-08-30T09:15:06;19.50;99.90
41060;DHT22;26811;53.160;8.202;2023-08-30T09:20:08;19.70;99.90
41060;DHT22;26811;53.160;8.202;2023-08-30T09:25:10;19.80;99.90
41060;DHT22;26811;53.160;8.202;2023-08-30T09:30:11;20.00;99.90
41060;DHT22;26811;53.160;8.202;2023-08-30T09:35:12;20.10;99.90
41060;DHT22;26811;53.160;8.202;2023-08-30T09:40:18;20.30;99.90
41060;DHT22;26811;53.160;8.202;2023-08-30T09:45:22;20.40;99.90
41060;DHT22;26811;53.160;8.202;2023-08-30T09:50:22;20.60;99.90
41060;DHT22;26811;53.160;8.202;2023-08-30T09:55:24;20.60;99.90
41060;DHT22;26811;53.160;8.202;2023-08-30T10:00:24;20.50;99.90
41060;DHT22;26811;53.160;8.202;2023-08-30T10:05:26;20.80;99.90
41060;DHT22;26811;53.160;8.202;2023-08-30T10:10:27;20.90;99.90
41060;DHT22;26811;53.160;8.202;2023-08-30T10:15:32;21.00;99.90
41060;DHT22;26811;53.160;8.202;2023-08-30T10:20:33;20.80;99.90
41060;DHT22;26811;53.160;8.202;2023-08-30T10:25:34;20.60;99.90
41060;DHT22;26811;53.160;8.202;2023-08-30T10:30:35;20.50;99.90
41060;DHT22;26811;53.160;8.202;2023-08-30T10:35:47;20.40;99.90
41060;DHT22;26811;53.160;8.202;2023-08-30T10:40:49;20.10;99.90
41060;DHT22;26811;53.160;8.202;2023-08-30T10:46:02;20.30;99.90
41060;DHT22;26811;53.160;8.202;2023-08-30T10:51:04;20.00;99.90
41060;DHT22;26811;53.160;8.202;2023-08-30T10:56:11;19.60;99.90
41060;DHT22;26811;53.160;8.202;2023-08-30T11:01:11;19.30;99.90
41060;DHT22;26811;53.160;8.202;2023-08-30T11:06:14;19.10;99.90
41060;DHT22;26811;53.160;8.202;2023-08-30T11:11:15;19.00;99.90
41060;DHT22;26811;53.160;8.202;2023-08-30T11:16:21;18.80;99.90
41060;DHT22;26811;53.160;8.202;2023-08-30T11:21:22;18.60;99.90
41060;DHT22;26811;53.160;8.202;2023-08-30T11:26:22;18.50;99.90
41060;DHT22;26811;53.160;8.202;2023-08-30T11:31:24;18.50;99.90
41060;DHT22;26811;53.160;8.202;2023-08-30T11:36:32;18.50;99.90
41060;DHT22;26811;53.160;8.202;2023-08-30T11:41:33;18.50;99.90
41060;DHT22;26811;53.160;8.202;2023-08-30T11:46:34;18.70;99.90
41060;DHT22;26811;53.160;8.202;2023-08-30T11:51:34;18.80;99.90
41060;DHT22;26811;53.160;8.202;2023-08-30T11:56:36;18.70;99.90
41060;DHT22;26811;53.160;8.202;2023-08-30T12:01:37;18.60;99.90
41060;DHT22;26811;53.160;8.202;2023-08-30T12:06:38;18.60;99.90
41060;DHT22;26811;53.160;8.202;2023-08-30T12:11:39;18.60;99.90
41060;DHT22;26811;53.160;8.202;2023-08-30T12:16:40;18.50;99.90
41060;DHT22;26811;53.160;8.202;2023-08-30T12:21:50;18.50;99.90
41060;DHT22;26811;53.160;8.202;2023-08-30T12:26:50;18.40;99.90
41060;DHT22;26811;53.160;8.202;2023-08-30T12:31:51;18.30;99.90
41060;DHT22;26811;53.160;8.202;2023-08-30T12:36:52;18.30;99.90
41060;DHT22;26811;53.160;8.202;2023-08-30T12:41:52;18.30;99.90
41060;DHT22;26811;53.160;8.202;2023-08-30T12:46:53;18.30;99.90
41060;DHT22;26811;53.160;8.202;2023-08-30T12:51:53;18.20;99.90
41060;DHT22;26811;53.160;8.202;2023-08-30T12:56:54;18.20;99.90
41060;DHT22;26811;53.160;8.202;2023-08-30T13:01:54;18.10;99.90
41060;DHT22;26811;53.160;8.202;2023-08-30T13:06:55;17.90;99.90
41060;DHT22;26811;53.160;8.202;2023-08-30T13:11:55;17.70;99.90
41060;DHT22;26811;53.160;8.202;2023-08-30T13:16:56;17.30;99.90
41060;DHT22;26811;53.160;8.202;2023-08-30T13:21:56;17.00;99.90
41060;DHT22;26811;53.160;8.202;2023-08-30T13:26:58;16.80;99.90
41060;DHT22;26811;53.160;8.202;2023-08-30T13:31:58;16.70;99.90
41060;DHT22;26811;53.160;8.202;2023-08-30T13:36:59;16.70;99.90
41060;DHT22;26811;53.160;8.202;2023-08-30T13:41:59;16.60;99.90
41060;DHT22;26811;53.160;8.202;2023-08-30T13:47:00;16.50;99.90
41060;DHT22;26811;53.160;8.202;2023-08-30T13:52:00;16.40;99.90
41060;DHT22;26811;53.160;8.202;2023-08-30T13:57:01;16.30;99.90
41060;DHT22;26811;53.160;8.202;2023-08-30T14:02:03;16.10;99.90
41060;DHT22;26811;53.160;8.202;2023-08-30T14:07:04;15.90;99.90
41060;DHT22;26811;53.160;8.202;2023-08-30T14:12:05;15.70;99.90
41060;DHT22;26811;53.160;8.202;2023-08-30T14:17:06;15.70;99.90
41060;DHT22;26811;53.160;8.202;2023-08-30T14:22:06;15.60;99.90
41060;DHT22;26811;53.160;8.202;2023-08-30T14:27:07;15.50;99.90
41060;DHT22;26811;53.160;8.202;2023-08-30T14:32:08;15.40;99.90
41060;DHT22;26811;53.160;8.202;2023-08-30T14:37:08;15.30;99.90
41060;DHT22;26811;53.160;8.202;2023-08-30T14:42:09;15.30;99.90
41060;DHT22;26811;53.160;8.202;2023-08-30T14:47:09;15.30;99.90
41060;DHT22;26811;53.160;8.202;2023-08-30T14:52:10;15.30;99.90
41060;DHT22;26811;53.160;8.202;2023-08-30T14:57:10;15.30;99.90
41060;DHT22;26811;53.160;8.202;2023-08-30T15:02:11;15.20;99.90
41060;DHT22;26811;53.160;8.202;2023-08-30T15:07:11;15.20;99.90
41060;DHT22;26811;53.160;8.202;2023-08-30T15:12:12;15.10;99.90
41060;DHT22;26811;53.160;8.202;2023-08-30T15:17:14;15.10;99.90
41060;DHT22;26811;53.160;8.202;2023-08-30T15:22:16;15.10;99.90
41060;DHT22;26811;53.160;8.202;2023-08-30T15:27:16;15.10;99.90
41060;DHT22;26811;53.160;8.202;2023-08-30T15:32:17;15.10;99.90
41060;DHT22;26811;53.160;8.202;2023-08-30T15:37:18;15.10;99.90
41060;DHT22;26811;53.160;8.202;2023-08-30T15:42:20;15.20;99.90
41060;DHT22;26811;53.160;8.202;2023-08-30T15:47:21;15.30;99.90
41060;DHT22;26811;53.160;8.202;2023-08-30T15:52:21;15.40;99.90
41060;DHT22;26811;53.160;8.202;2023-08-30T15:57:22;15.40;99.90
41060;DHT22;26811;53.160;8.202;2023-08-30T16:02:22;15.40;99.90
41060;DHT22;26811;53.160;8.202;2023-08-30T16:07:23;15.40;99.90
41060;DHT22;26811;53.160;8.202;2023-08-30T16:12:23;15.40;99.90
41060;DHT22;26811;53.160;8.202;2023-08-30T16:17:24;15.40;99.90
41060;DHT22;26811;53.160;8.202;2023-08-30T16:22:24;15.40;99.90
41060;DHT22;26811;53.160;8.202;2023-08-30T16:27:25;15.40;99.90
41060;DHT22;26811;53.160;8.202;2023-08-30T16:32:26;15.40;99.90
41060;DHT22;26811;53.160;8.202;2023-08-30T16:37:26;15.50;99.90
41060;DHT22;26811;53.160;8.202;2023-08-30T16:42:27;15.50;99.90
41060;DHT22;26811;53.160;8.202;2023-08-30T16:47:28;15.50;99.90
41060;DHT22;26811;53.160;8.202;2023-08-30T16:52:28;15.50;99.90
41060;DHT22;26811;53.160;8.202;2023-08-30T16:57:29;15.50;99.90
41060;DHT22;26811;53.160;8.202;2023-08-30T17:02:29;15.50;99.90
41060;DHT22;26811;53.160;8.202;2023-08-30T17:07:30;15.40;99.90
41060;DHT22;26811;53.160;8.202;2023-08-30T17:12:31;15.40;99.90
41060;DHT22;26811;53.160;8.202;2023-08-30T17:17:31;15.50;99.90
41060;DHT22;26811;53.160;8.202;2023-08-30T17:22:32;15.40;99.90
41060;DHT22;26811;53.160;8.202;2023-08-30T17:27:32;15.40;99.90
41060;DHT22;26811;53.160;8.202;2023-08-30T17:32:33;15.30;99.90
41060;DHT22;26811;53.160;8.202;2023-08-30T17:37:33;15.10;99.90
41060;DHT22;26811;53.160;8.202;2023-08-30T17:42:34;15.00;99.90
41060;DHT22;26811;53.160;8.202;2023-08-30T17:47:34;14.80;99.90
41060;DHT22;26811;53.160;8.202;2023-08-30T17:52:35;14.60;99.90
41060;DHT22;26811;53.160;8.202;2023-08-30T17:57:35;14.50;99.90
41060;DHT22;26811;53.160;8.202;2023-08-30T18:02:36;14.30;99.90
41060;DHT22;26811;53.160;8.202;2023-08-30T18:07:37;14.10;99.90
41060;DHT22;26811;53.160;8.202;2023-08-30T18:12:38;14.00;99.90
41060;DHT22;26811;53.160;8.202;2023-08-30T18:17:38;13.90;99.90
41060;DHT22;26811;53.160;8.202;2023-08-30T18:22:39;13.80;99.90
41060;DHT22;26811;53.160;8.202;2023-08-30T18:27:39;13.70;99.90
41060;DHT22;26811;53.160;8.202;2023-08-30T18:32:40;13.70;99.90
41060;DHT22;26811;53.160;8.202;2023-08-30T18:37:40;13.60;99.90
41060;DHT22;26811;53.160;8.202;2023-08-30T18:42:42;13.60;99.90
41060;DHT22;26811;53.160;8.202;2023-08-30T18:47:42;13.50;99.90
41060;DHT22;26811;53.160;8.202;2023-08-30T18:52:43;13.60;99.90
41060;DHT22;26811;53.160;8.202;2023-08-30T18:57:44;13.50;99.90
41060;DHT22;26811;53.160;8.202;2023-08-30T19:02:44;13.50;99.90
41060;DHT22;26811;53.160;8.202;2023-08-30T19:07:45;13.50;99.90
41060;DHT22;26811;53.160;8.202;2023-08-30T19:12:45;13.50;99.90
41060;DHT22;26811;53.160;8.202;2023-08-30T19:17:46;13.50;99.90
41060;DHT22;26811;53.160;8.202;2023-08-30T19:22:47;13.50;99.90
41060;DHT22;26811;53.160;8.202;2023-08-30T19:27:48;13.50;99.90
41060;DHT22;26811;53.160;8.202;2023-08-30T19:32:48;13.50;99.90
41060;DHT22;26811;53.160;8.202;2023-08-30T19:37:49;13.50;99.90
41060;DHT22;26811;53.160;8.202;2023-08-30T19:42:49;13.50;99.90
41060;DHT22;26811;53.160;8.202;2023-08-30T19:47:50;13.50;99.90
41060;DHT22;26811;53.160;8.202;2023-08-30T19:52:51;13.60;99.90
41060;DHT22;26811;53.160;8.202;2023-08-30T19:57:51;13.60;99.90
41060;DHT22;26811;53.160;8.202;2023-08-30T20:02:53;13.60;99.90
41060;DHT22;26811;53.160;8.202;2023-08-30T20:07:53;13.60;99.90
41060;DHT22;26811;53.160;8.202;2023-08-30T20:12:54;13.70;99.90
41060;DHT22;26811;53.160;8.202;2023-08-30T20:17:55;13.70;99.90
41060;DHT22;26811;53.160;8.202;2023-08-30T20:22:55;13.60;99.90
41060;DHT22;26811;53.160;8.202;2023-08-30T20:28:01;13.70;99.90
41060;DHT22;26811;53.160;8.202;2023-08-30T20:33:01;13.60;99.90
41060;DHT22;26811;53.160;8.202;2023-08-30T20:38:02;13.60;99.90
41060;DHT22;26811;53.160;8.202;2023-08-30T20:43:03;13.60;99.90
41060;DHT22;26811;53.160;8.202;2023-08-30T20:48:04;13.60;99.90
41060;DHT22;26811;53.160;8.202;2023-08-30T20:53:05;13.60;99.90
41060;DHT22;26811;53.160;8.202;2023-08-30T20:58:06;13.50;99.90
41060;DHT22;26811;53.160;8.202;2023-08-30T21:03:07;13.50;99.90
41060;DHT22;26811;53.160;8.202;2023-08-30T21:08:08;13.40;99.90
41060;DHT22;26811;53.160;8.202;2023-08-30T21:13:09;13.40;99.90
41060;DHT22;26811;53.160;8.202;2023-08-30T21:18:09;13.40;99.90
41060;DHT22;26811;53.160;8.202;2023-08-30T21:23:10;13.30;99.90
41060;DHT22;26811;53.160;8.202;2023-08-30T21:28:19;13.30;99.90
41060;DHT22;26811;53.160;8.202;2023-08-30T21:33:21;13.30;99.90
41060;DHT22;26811;53.160;8.202;2023-08-30T21:38:22;13.30;99.90
41060;DHT22;26811;53.160;8.202;2023-08-30T21:43:23;13.20;99.90
41060;DHT22;26811;53.160;8.202;2023-08-30T21:48:24;13.20;99.90
41060;DHT22;26811;53.160;8.202;2023-08-30T21:53:24;13.20;99.90
41060;DHT22;26811;53.160;8.202;2023-08-30T21:58:25;13.20;99.90
41060;DHT22;26811;53.160;8.202;2023-08-30T22:03:25;13.10;99.90
41060;DHT22;26811;53.160;8.202;2023-08-30T22:08:26;13.10;99.90
41060;DHT22;26811;53.160;8.202;2023-08-30T22:13:27;13.10;99.90
41060;DHT22;26811;53.160;8.202;2023-08-30T22:18:28;13.00;99.90
41060;DHT22;26811;53.160;8.202;2023-08-30T22:23:28;13.00;99.90
41060;DHT22;26811;53.160;8.202;2023-08-30T22:28:29;13.00;99.90
41060;DHT22;26811;53.160;8.202;2023-08-30T22:33:30;13.00;99.90
41060;DHT22;26811;53.160;8.202;2023-08-30T22:38:36;13.00;99.90
41060;DHT22;26811;53.160;8.202;2023-08-30T22:43:37;13.00;99.90
41060;DHT22;26811;53.160;8.202;2023-08-30T22:48:37;12.90;99.90
41060;DHT22;26811;53.160;8.202;2023-08-30T22:53:38;12.90;99.90
41060;DHT22;26811;53.160;8.202;2023-08-30T22:58:38;12.80;99.90
41060;DHT22;26811;53.160;8.202;2023-08-30T23:03:39;12.80;99.90
41060;DHT22;26811;53.160;8.202;2023-08-30T23:08:41;12.80;99.90
41060;DHT22;26811;53.160;8.202;2023-08-30T23:13:43;12.80;99.90
41060;DHT22;26811;53.160;8.202;2023-08-30T23:18:45;12.70;99.90
41060;DHT22;26811;53.160;8.202;2023-08-30T23:23:46;12.70;99.90
41060;DHT22;26811;53.160;8.202;2023-08-30T23:28:46;12.60;99.90
41060;DHT22;26811;53.160;8.202;2023-08-30T23:33:49;12.50;99.90
41060;DHT22;26811;53.160;8.202;2023-08-30T23:38:50;12.50;99.90
41060;DHT22;26811;53.160;8.202;2023-08-30T23:43:51;12.50;99.90
41060;DHT22;26811;53.160;8.202;2023-08-30T23:48:54;12.40;99.90
41060;DHT22;26811;53.160;8.202;2023-08-30T23:53:54;12.40;99.90
41060;DHT22;26811;53.160;8.202;2023-08-30T23:58:55;12.40;99.90
